createdAt,value
2023-08-10T00:00:10.398Z,99.99
2023-08-10T00:02:23.977Z,99.99
2023-08-10T00:04:37.537Z,99.99
2023-08-10T00:06:51.136Z,99.99
2023-08-10T00:09:03.211Z,99.99
2023-08-10T00:11:16.788Z,99.99
2023-08-10T00:13:28.871Z,99.99
2023-08-10T00:15:42.442Z,99.99
2023-08-10T00:17:54.560Z,99.99
2023-08-10T00:20:06.631Z,99.99
2023-08-10T00:22:18.691Z,99.99
2023-08-10T00:24:30.801Z,99.99
2023-08-10T00:26:42.853Z,99.99
2023-08-10T00:28:56.436Z,99.99
2023-08-10T00:31:08.562Z,99.99
2023-08-10T00:33:32.157Z,99.99
2023-08-10T00:34:22.560Z,99.99
2023-08-10T00:36:33.654Z,99.99
2023-08-10T00:38:45.728Z,99.99
2023-08-10T00:40:57.840Z,99.99
2023-08-10T00:43:09.872Z,99.99
2023-08-10T00:45:25.450Z,99.99
2023-08-10T00:47:37.582Z,99.99
2023-08-10T00:49:51.110Z,99.99
2023-08-10T00:52:03.527Z,99.99
2023-08-10T00:54:16.573Z,99.99
2023-08-10T00:56:28.652Z,99.99
2023-08-10T00:58:40.732Z,99.99
2023-08-10T01:00:54.304Z,99.99
2023-08-10T01:03:07.477Z,99.99
2023-08-10T01:05:19.516Z,99.99
2023-08-10T01:07:31.542Z,99.99
2023-08-10T01:09:45.119Z,99.99
2023-08-10T01:11:58.709Z,99.99
2023-08-10T01:14:12.310Z,99.99
2023-08-10T01:16:25.959Z,99.99
2023-08-10T01:18:37.966Z,99.99
2023-08-10T01:20:50.056Z,99.99
2023-08-10T01:23:02.139Z,99.99
2023-08-10T01:25:15.757Z,99.99
2023-08-10T01:27:29.597Z,99.99
2023-08-10T01:29:43.164Z,99.99
2023-08-10T01:31:56.779Z,99.99
2023-08-10T01:34:10.320Z,99.99
2023-08-10T01:36:22.427Z,99.99
2023-08-10T01:38:35.497Z,99.99
2023-08-10T01:40:49.131Z,99.99
2023-08-10T01:43:04.667Z,99.99
2023-08-10T01:45:18.247Z,99.99
2023-08-10T01:47:33.884Z,99.99
2023-08-10T01:49:49.421Z,99.99
2023-08-10T01:52:01.564Z,99.99
2023-08-10T01:54:15.076Z,99.99
2023-08-10T01:56:30.693Z,99.99
2023-08-10T01:58:44.324Z,99.99
2023-08-10T02:00:57.858Z,99.99
2023-08-10T02:03:10.015Z,99.99
2023-08-10T02:05:25.522Z,99.99
2023-08-10T02:07:41.102Z,99.99
2023-08-10T02:09:53.232Z,99.99
2023-08-10T02:12:05.537Z,99.99
2023-08-10T02:14:20.852Z,99.99
2023-08-10T02:16:34.745Z,99.99
2023-08-10T02:18:50.334Z,99.99
2023-08-10T02:21:08.450Z,99.99
2023-08-10T02:23:20.799Z,99.99
2023-08-10T02:25:36.494Z,99.99
2023-08-10T02:27:49.970Z,99.99
2023-08-10T02:30:02.053Z,99.99
2023-08-10T02:32:15.642Z,99.99
2023-08-10T02:34:27.718Z,99.99
2023-08-10T02:36:41.287Z,99.99
2023-08-10T02:38:54.951Z,99.99
2023-08-10T02:41:06.961Z,99.99
2023-08-10T02:43:22.587Z,99.99
2023-08-10T02:45:36.147Z,99.99
2023-08-10T02:47:49.797Z,99.99
2023-08-10T02:50:01.820Z,99.99
2023-08-10T02:52:15.386Z,99.99
2023-08-10T02:54:27.520Z,99.99
2023-08-10T02:56:39.587Z,99.99
2023-08-10T02:58:53.147Z,99.99
2023-08-10T03:01:05.321Z,99.99
2023-08-10T03:03:19.789Z,99.99
2023-08-10T03:05:32.896Z,99.99
2023-08-10T03:07:48.467Z,99.99
2023-08-10T03:10:09.386Z,99.99
2023-08-10T03:12:18.627Z,99.99
2023-08-10T03:14:32.227Z,99.99
2023-08-10T03:16:44.390Z,99.99
2023-08-10T03:18:57.893Z,99.99
2023-08-10T03:21:09.999Z,99.99
2023-08-10T03:22:09.999Z,99.99
2023-08-10T03:24:22.046Z,99.99
2023-08-10T03:26:34.123Z,99.99
2023-08-10T03:28:46.244Z,99.99
2023-08-10T03:30:59.355Z,99.99
2023-08-10T03:33:11.449Z,99.99
2023-08-10T03:35:25.031Z,99.99
2023-08-10T03:37:38.934Z,99.99
2023-08-10T03:39:52.491Z,99.99
2023-08-10T03:42:04.764Z,99.99
2023-08-10T03:44:16.694Z,99.99
2023-08-10T03:46:28.819Z,99.99
2023-08-10T03:48:40.955Z,99.99
2023-08-10T03:50:56.419Z,99.99
2023-08-10T03:53:10.028Z,99.99
2023-08-10T03:55:23.630Z,99.99
2023-08-10T03:57:37.176Z,99.99
2023-08-10T03:59:49.255Z,99.99
2023-08-10T04:02:03.165Z,99.99
2023-08-10T04:04:16.452Z,99.99
2023-08-10T04:06:32.053Z,99.99
2023-08-10T04:08:45.634Z,99.99
2023-08-10T04:11:03.756Z,99.99
2023-08-10T04:13:18.314Z,99.99
2023-08-10T04:15:34.198Z,99.99
2023-08-10T04:17:47.848Z,99.99
2023-08-10T04:20:01.377Z,99.99
2023-08-10T04:22:16.954Z,99.99
2023-08-10T04:24:32.538Z,99.99
2023-08-10T04:26:46.111Z,99.99
2023-08-10T04:29:01.744Z,99.99
2023-08-10T04:31:17.349Z,99.99
2023-08-10T04:33:30.865Z,99.99
2023-08-10T04:35:42.954Z,99.99
2023-08-10T04:37:55.023Z,99.99
2023-08-10T04:40:14.127Z,99.99
2023-08-10T04:42:26.704Z,99.99
2023-08-10T04:44:44.779Z,99.99
2023-08-10T04:46:56.861Z,99.99
2023-08-10T04:49:12.427Z,99.99
2023-08-10T04:51:30.530Z,99.99
2023-08-10T04:53:46.076Z,99.99
2023-08-10T04:56:01.661Z,99.99
2023-08-10T04:58:12.748Z,99.99
2023-08-10T05:00:26.324Z,99.99
2023-08-10T05:02:41.972Z,99.99
2023-08-10T05:04:57.495Z,99.99
2023-08-10T05:07:09.601Z,99.99
2023-08-10T05:09:23.155Z,99.99
2023-08-10T05:11:36.758Z,99.99
2023-08-10T05:13:52.346Z,99.99
2023-08-10T05:16:04.514Z,99.99
2023-08-10T05:18:16.499Z,99.99
2023-08-10T05:20:28.662Z,99.99
2023-08-10T05:22:42.158Z,99.99
2023-08-10T05:24:55.776Z,99.99
2023-08-10T05:27:09.345Z,99.99
2023-08-10T05:29:22.993Z,99.99
2023-08-10T05:31:38.539Z,99.99
2023-08-10T05:33:52.105Z,99.99
2023-08-10T05:36:05.723Z,99.99
2023-08-10T05:38:23.538Z,99.99
2023-08-10T05:40:41.628Z,99.99
2023-08-10T05:42:56.193Z,99.99
2023-08-10T05:45:11.787Z,99.99
2023-08-10T05:47:23.902Z,99.99
2023-08-10T05:49:35.977Z,99.99
2023-08-10T05:51:51.588Z,99.99
2023-08-10T05:54:03.683Z,99.85
2023-08-10T05:56:19.228Z,99.39
2023-08-10T05:58:32.914Z,97.16
2023-08-10T06:00:44.932Z,98.13
2023-08-10T06:02:57.079Z,96.97
2023-08-10T06:05:12.571Z,96.15
2023-08-10T06:07:24.651Z,92.91
2023-08-10T06:09:36.790Z,94.90
2023-08-10T06:11:50.322Z,93.68
2023-08-10T06:14:04.890Z,95.26
2023-08-10T06:16:18.499Z,92.93
2023-08-10T06:18:34.062Z,92.99
2023-08-10T06:20:52.152Z,91.77
2023-08-10T06:23:05.707Z,93.24
2023-08-10T06:25:17.800Z,92.35
2023-08-10T06:27:30.858Z,93.55
2023-08-10T06:38:31.254Z,91.02
2023-08-10T06:40:43.799Z,92.60
2023-08-10T06:42:58.418Z,91.58
2023-08-10T06:45:10.505Z,90.67
2023-08-10T06:47:22.584Z,92.76
2023-08-10T06:49:34.691Z,91.60
2023-08-10T06:51:49.231Z,87.52
2023-08-10T06:54:04.817Z,90.34
2023-08-10T06:56:16.914Z,89.64
2023-08-10T07:00:41.149Z,88.93
2023-08-10T07:02:59.178Z,88.79
2023-08-10T07:05:11.236Z,88.18
2023-08-10T07:07:31.821Z,87.58
2023-08-10T07:09:45.712Z,86.99
2023-08-10T07:12:00.327Z,82.62
2023-08-10T07:14:15.878Z,81.75
2023-08-10T07:16:29.476Z,82.71
2023-08-10T07:18:41.538Z,84.29
2023-08-10T07:20:53.697Z,80.77
2023-08-10T07:23:05.727Z,81.59
2023-08-10T07:25:20.404Z,76.69
2023-08-10T07:27:34.146Z,75.95
2023-08-10T07:29:54.741Z,74.61
2023-08-10T07:32:08.536Z,75.78
2023-08-10T07:34:20.428Z,72.24
2023-08-10T07:36:33.988Z,71.94
2023-08-10T07:38:52.096Z,75.65
2023-08-10T07:41:04.168Z,74.31
2023-08-10T07:43:16.252Z,73.74
2023-08-10T07:45:29.840Z,74.15
2023-08-10T07:47:45.538Z,75.09
2023-08-10T07:50:03.476Z,71.83
2023-08-10T07:52:17.066Z,77.17
2023-08-10T07:54:30.725Z,75.05
2023-08-10T07:56:42.772Z,77.13
2023-08-10T07:58:54.827Z,75.82
2023-08-10T08:01:08.442Z,75.49
2023-08-10T08:03:24.072Z,70.50
2023-08-10T08:05:42.128Z,73.85
2023-08-10T08:07:55.719Z,74.01
2023-08-10T08:10:07.836Z,71.33
2023-08-10T08:12:19.879Z,71.97
2023-08-10T08:14:40.510Z,71.63
2023-08-10T08:16:57.042Z,69.53
2023-08-10T08:19:09.119Z,72.94
2023-08-10T08:21:27.192Z,74.37
2023-08-10T08:23:39.282Z,72.06
2023-08-10T08:25:51.364Z,69.85
2023-08-10T08:28:05.958Z,67.75
2023-08-10T08:30:18.148Z,66.28
2023-08-10T08:32:49.408Z,68.49
2023-08-10T08:34:42.182Z,71.26
2023-08-10T08:36:56.773Z,69.22
2023-08-10T08:39:09.875Z,68.26
2023-08-10T08:41:21.985Z,69.59
2023-08-10T08:43:37.538Z,67.79
2023-08-10T08:45:49.648Z,67.85
2023-08-10T08:48:02.753Z,67.39
2023-08-10T08:50:16.301Z,63.42
2023-08-10T08:52:28.438Z,64.78
2023-08-10T08:54:40.499Z,65.01
2023-08-10T08:56:54.106Z,68.15
2023-08-10T08:59:07.173Z,67.65
2023-08-10T09:01:25.298Z,68.92
2023-08-10T09:03:43.425Z,63.13
2023-08-10T09:06:01.429Z,61.94
2023-08-10T09:08:15.027Z,67.29
2023-08-10T09:10:33.125Z,60.74
2023-08-10T09:16:52.725Z,61.08
2023-08-10T09:19:06.255Z,61.35
2023-08-10T09:21:18.418Z,59.62
2023-08-10T09:30:15.393Z,66.13
2023-08-10T09:32:28.457Z,63.21
2023-08-10T09:34:42.032Z,65.82
2023-08-10T09:36:55.628Z,64.72
2023-08-10T09:39:09.222Z,66.82
2023-08-10T09:42:25.407Z,66.92
2023-08-10T09:44:40.569Z,67.35
2023-08-10T09:46:56.141Z,63.84
2023-08-10T09:50:01.660Z,65.19
2023-08-10T09:52:14.809Z,59.62
2023-08-10T09:55:15.689Z,59.51
2023-08-10T09:57:56.999Z,63.08
2023-08-10T10:01:42.337Z,62.12
2023-08-10T10:03:57.622Z,61.29
2023-08-10T10:15:05.957Z,61.93
2023-08-10T10:17:58.618Z,62.49
2023-08-10T10:20:10.701Z,63.65
2023-08-10T10:22:56.710Z,64.65
2023-08-10T10:25:37.410Z,65.75
2023-08-10T10:27:48.343Z,61.02
2023-08-10T10:33:01.691Z,62.85
2023-08-10T10:35:15.848Z,66.89
2023-08-10T10:37:28.885Z,62.81
2023-08-10T10:39:41.015Z,65.22
2023-08-10T10:41:54.676Z,68.42
2023-08-10T10:44:06.697Z,67.19
2023-08-10T10:46:18.815Z,65.53
2023-08-10T10:48:53.315Z,58.55
2023-08-10T10:51:07.546Z,61.60
2023-08-10T10:53:39.965Z,57.21
2023-08-10T10:55:54.066Z,60.59
2023-08-10T11:01:47.975Z,56.89
2023-08-10T11:07:54.853Z,56.48
2023-08-10T11:10:47.930Z,59.58
2023-08-10T11:13:07.985Z,58.54
2023-08-10T11:15:21.549Z,57.51
2023-08-10T11:17:48.002Z,58.11
2023-08-10T11:18:36.189Z,58.48
2023-08-10T11:23:00.556Z,57.87
2023-08-10T11:26:00.001Z,50.85
2023-08-10T11:31:25.853Z,57.46
2023-08-10T11:33:41.384Z,57.86
2023-08-10T11:35:56.962Z,55.24
2023-08-10T11:39:14.491Z,53.75
2023-08-10T11:42:45.183Z,51.79
2023-08-10T11:48:04.782Z,47.54
2023-08-10T11:50:18.577Z,47.41
2023-08-10T11:52:39.198Z,45.78
2023-08-10T11:54:51.288Z,49.99
2023-08-10T11:58:30.781Z,52.72
2023-08-10T12:00:43.963Z,55.35
2023-08-10T12:02:58.049Z,57.86
2023-08-10T12:05:14.080Z,54.03
2023-08-10T12:07:30.405Z,56.75
2023-08-10T12:09:43.228Z,57.13
2023-08-10T12:12:28.395Z,57.76
2023-08-10T12:15:57.937Z,58.36
2023-08-10T12:18:16.072Z,50.16
2023-08-10T12:20:29.543Z,51.77
2023-08-10T12:27:02.854Z,53.19
2023-08-10T12:29:18.272Z,57.35
2023-08-10T12:32:34.584Z,56.35
2023-08-10T12:34:46.661Z,57.45
2023-08-10T12:37:00.032Z,56.81
2023-08-10T12:39:13.691Z,59.30
2023-08-10T12:41:25.690Z,56.85
2023-08-10T12:43:37.799Z,58.85
2023-08-10T12:45:49.862Z,55.66
2023-08-10T12:48:02.053Z,57.15
2023-08-10T12:50:14.020Z,58.95
2023-08-10T12:52:26.092Z,54.04
2023-08-10T12:54:39.205Z,53.54
2023-08-10T12:56:52.744Z,60.35
2023-08-10T12:59:07.208Z,56.85
2023-08-10T13:01:18.438Z,59.81
2023-08-10T13:03:30.485Z,57.64
2023-08-10T13:05:42.722Z,59.70
2023-08-10T13:07:54.645Z,59.51
2023-08-10T13:10:06.723Z,55.96
2023-08-10T13:12:18.796Z,55.54
2023-08-10T13:14:34.410Z,56.60
2023-08-10T13:16:48.061Z,54.88
2023-08-10T13:19:00.067Z,53.56
2023-08-10T13:21:15.650Z,56.95
2023-08-10T13:23:27.704Z,56.55
2023-08-10T13:25:39.881Z,55.16
2023-08-10T13:27:51.879Z,57.22
2023-08-10T13:30:03.922Z,55.33
2023-08-10T13:32:17.012Z,54.96
2023-08-10T13:34:29.114Z,58.97
2023-08-10T13:36:41.167Z,56.53
2023-08-10T13:38:53.279Z,59.55
2023-08-10T13:41:05.335Z,57.68
2023-08-10T13:43:18.440Z,62.20
2023-08-10T13:45:30.533Z,60.31
2023-08-10T13:47:44.161Z,56.11
2023-08-10T13:49:57.725Z,57.01
2023-08-10T13:52:11.283Z,56.41
2023-08-10T13:54:24.368Z,55.71
2023-08-10T13:56:37.440Z,56.41
2023-08-10T13:58:51.044Z,56.76
2023-08-10T14:01:04.140Z,59.12
2023-08-10T14:03:16.296Z,52.19
2023-08-10T14:05:28.257Z,58.38
2023-08-10T14:07:40.329Z,57.98
2023-08-10T14:09:52.399Z,55.66
2023-08-10T14:12:08.262Z,59.58
2023-08-10T14:14:21.598Z,58.78
2023-08-10T14:16:35.248Z,60.31
2023-08-10T14:18:47.216Z,60.21
2023-08-10T14:21:00.305Z,60.80
2023-08-10T14:23:12.450Z,59.70
2023-08-10T14:25:24.449Z,61.87
2023-08-10T14:27:38.031Z,55.64
2023-08-10T14:29:53.635Z,55.34
2023-08-10T14:32:05.953Z,61.49
2023-08-10T14:34:18.843Z,62.42
2023-08-10T14:36:32.481Z,59.05
2023-08-10T14:38:44.567Z,60.92
2023-08-10T14:40:58.137Z,62.42
2023-08-10T14:43:10.220Z,63.32
2023-08-10T14:45:22.327Z,62.45
2023-08-10T14:47:36.153Z,65.55
2023-08-10T14:49:47.961Z,65.86
2023-08-10T14:52:01.044Z,63.48
2023-08-10T14:54:16.617Z,64.98
2023-08-10T14:56:29.711Z,66.89
2023-08-10T14:58:42.753Z,65.42
2023-08-10T15:00:56.797Z,65.92
2023-08-10T15:03:09.848Z,66.02
2023-08-10T15:05:23.445Z,62.01
2023-08-10T15:07:36.535Z,63.42
2023-08-10T15:10:49.760Z,60.01
2023-08-10T15:13:03.385Z,57.55
2023-08-10T15:15:15.432Z,62.85
2023-08-10T15:17:27.615Z,64.55
2023-08-10T15:19:41.087Z,63.15
2023-08-10T15:21:53.175Z,60.15
2023-08-10T15:24:06.299Z,59.49
2023-08-10T15:26:18.336Z,57.67
2023-08-10T15:28:31.915Z,61.46
2023-08-10T15:30:45.059Z,60.69
2023-08-10T15:33:00.663Z,57.07
2023-08-10T15:35:12.700Z,59.47
2023-08-10T15:37:25.735Z,58.89
2023-08-10T15:39:39.414Z,59.59
2023-08-10T15:41:51.430Z,56.39
2023-08-10T15:44:03.478Z,61.26
2023-08-10T15:46:21.914Z,56.59
2023-08-10T15:48:34.951Z,60.57
2023-08-10T15:50:48.013Z,57.73
2023-08-10T15:53:00.094Z,51.52
2023-08-10T15:55:12.180Z,48.55
2023-08-10T15:57:27.777Z,46.76
2023-08-10T15:59:39.850Z,43.24
2023-08-10T16:01:52.009Z,44.68
2023-08-10T16:04:04.105Z,42.10
2023-08-10T16:06:16.108Z,43.71
2023-08-10T16:08:28.195Z,42.61
2023-08-10T16:10:41.792Z,43.70
2023-08-10T16:13:55.918Z,45.79
2023-08-10T16:16:09.587Z,47.17
2023-08-10T16:18:23.720Z,47.84
2023-08-10T16:21:36.325Z,42.20
2023-08-10T16:23:48.400Z,47.66
2023-08-10T16:26:01.475Z,49.07
2023-08-10T16:28:15.206Z,47.83
2023-08-10T16:30:28.160Z,53.58
2023-08-10T16:32:40.265Z,51.87
2023-08-10T16:34:52.287Z,54.85
2023-08-10T16:37:04.375Z,51.25
2023-08-10T16:42:32.605Z,60.58
2023-08-10T16:44:46.163Z,56.85
2023-08-10T16:46:59.554Z,52.04
2023-08-10T16:49:11.615Z,51.60
2023-08-10T16:51:23.997Z,53.78
2023-08-10T16:53:37.089Z,54.98
2023-08-10T16:55:56.419Z,56.59
2023-08-10T16:58:06.804Z,62.06
2023-08-10T17:00:18.896Z,65.05
2023-08-10T17:03:08.227Z,62.94
2023-08-10T17:05:21.831Z,66.08
2023-08-10T17:07:33.955Z,69.42
2023-08-10T17:09:46.035Z,68.52
2023-08-10T17:14:36.584Z,71.00
2023-08-10T17:18:58.745Z,73.24
2023-08-10T17:22:28.251Z,70.76
2023-08-10T17:24:40.626Z,74.28
2023-08-10T17:29:14.105Z,74.92
2023-08-10T17:33:01.331Z,76.06
2023-08-10T17:35:15.866Z,77.61
2023-08-10T17:39:15.410Z,78.45
2023-08-10T17:41:33.569Z,79.90
2023-08-10T17:43:45.062Z,80.20
2023-08-10T17:45:57.166Z,80.64
2023-08-10T17:52:06.853Z,83.46
2023-08-10T17:54:18.792Z,83.70
2023-08-10T17:57:58.305Z,85.05
2023-08-10T18:00:10.350Z,85.86
2023-08-10T18:02:22.481Z,85.36
2023-08-10T18:04:38.622Z,85.16
2023-08-10T18:11:43.864Z,87.86
2023-08-10T18:17:14.435Z,89.32
2023-08-10T18:19:26.590Z,89.01
2023-08-10T18:21:40.664Z,90.43
2023-08-10T18:23:53.751Z,90.27
2023-08-10T18:30:45.950Z,90.72
2023-08-10T18:32:58.027Z,91.22
2023-08-10T18:35:11.267Z,90.86
2023-08-10T18:37:23.356Z,91.87
2023-08-10T18:39:35.410Z,92.42
2023-08-10T18:41:47.524Z,93.94
2023-08-10T18:43:59.597Z,93.94
2023-08-10T18:46:11.682Z,93.84
2023-08-10T18:48:23.843Z,93.68
2023-08-10T18:50:35.823Z,94.29
2023-08-10T18:52:48.915Z,94.09
2023-08-10T18:55:00.974Z,93.99
2023-08-10T18:57:13.049Z,93.22
2023-08-10T18:59:25.144Z,93.12
2023-08-10T19:02:54.678Z,94.27
2023-08-10T19:05:06.714Z,94.27
2023-08-10T19:07:18.869Z,94.83
2023-08-10T19:10:48.403Z,94.67
2023-08-10T19:13:00.406Z,94.87
2023-08-10T19:15:13.469Z,95.94
2023-08-10T19:17:26.536Z,96.34
2023-08-10T19:19:38.644Z,97.20
2023-08-10T19:21:50.729Z,96.99
2023-08-10T19:24:02.793Z,97.60
2023-08-10T19:26:14.886Z,97.40
2023-08-10T19:28:26.978Z,97.50
2023-08-10T19:30:39.126Z,99.02
2023-08-10T19:32:51.221Z,98.46
2023-08-10T19:35:03.267Z,98.66
2023-08-10T19:37:15.334Z,99.17
2023-08-10T19:39:28.925Z,99.53
2023-08-10T19:41:39.555Z,98.56
2023-08-10T19:43:52.668Z,99.07
2023-08-10T19:46:05.748Z,98.71
2023-08-10T19:48:17.864Z,99.83
2023-08-10T19:50:29.940Z,99.42
2023-08-10T19:52:42.013Z,99.22
2023-08-10T19:54:54.083Z,99.27
2023-08-10T19:57:07.156Z,99.47
2023-08-10T19:59:19.224Z,99.47
2023-08-10T20:01:31.406Z,99.99
2023-08-10T20:03:43.420Z,99.99
2023-08-10T20:05:55.492Z,99.72
2023-08-10T20:08:07.578Z,99.99
2023-08-10T20:10:23.714Z,99.99
2023-08-10T20:12:34.209Z,99.99
2023-08-10T20:14:49.854Z,99.99
2023-08-10T20:17:05.429Z,99.99
2023-08-10T20:19:17.970Z,99.99
2023-08-10T20:21:30.580Z,99.99
2023-08-10T20:23:44.103Z,99.99
2023-08-10T20:25:57.179Z,99.99
2023-08-10T20:28:40.048Z,99.99
2023-08-10T20:30:52.072Z,99.99
2023-08-10T20:33:05.745Z,99.99
2023-08-10T20:35:54.487Z,99.99
2023-08-10T20:39:24.007Z,99.99
2023-08-10T20:41:36.088Z,99.99
2023-08-10T20:43:48.150Z,99.99
2023-08-10T20:46:00.262Z,99.99
2023-08-10T20:48:13.291Z,99.99
2023-08-10T20:50:25.383Z,99.99
2023-08-10T20:52:38.436Z,99.99
2023-08-10T20:54:50.510Z,99.99
2023-08-10T20:57:03.254Z,99.99
2023-08-10T20:59:14.686Z,99.99
2023-08-10T21:02:17.746Z,99.99
2023-08-10T21:04:29.781Z,99.99
2023-08-10T21:06:42.846Z,99.99
2023-08-10T21:08:56.827Z,99.99
2023-08-10T21:12:26.332Z,99.99
2023-08-10T21:14:38.394Z,99.99
2023-08-10T21:16:51.471Z,99.99
2023-08-10T21:19:15.644Z,99.99
2023-08-10T21:21:30.056Z,99.99
2023-08-10T21:23:43.637Z,99.99
2023-08-10T21:27:29.033Z,99.99
2023-08-10T21:29:48.237Z,99.99
2023-08-10T21:35:34.449Z,99.99
2023-08-10T21:37:48.009Z,99.99
2023-08-10T21:40:00.168Z,99.99
2023-08-10T21:42:27.911Z,99.99
2023-08-10T21:44:40.008Z,99.99
2023-08-10T21:48:09.488Z,99.99
2023-08-10T21:53:07.501Z,99.99
2023-08-10T21:56:33.819Z,99.99
2023-08-10T21:59:02.021Z,99.99
2023-08-10T22:01:30.758Z,99.99
2023-08-10T22:03:43.830Z,99.99
2023-08-10T22:10:16.940Z,99.99
2023-08-10T22:18:06.030Z,99.99
2023-08-10T22:20:20.579Z,99.99
2023-08-10T22:23:01.779Z,99.99
2023-08-10T22:23:49.713Z,99.99
2023-08-10T22:26:00.787Z,99.99
2023-08-10T22:28:15.181Z,99.99
2023-08-10T22:30:26.444Z,99.99
2023-08-10T22:32:39.548Z,99.99
2023-08-10T22:34:52.635Z,99.99
2023-08-10T22:37:04.686Z,99.99
2023-08-10T22:39:17.742Z,99.99
2023-08-10T22:41:33.347Z,99.99
2023-08-10T22:43:45.415Z,99.99
2023-08-10T22:45:58.526Z,99.99
2023-08-10T22:48:12.065Z,99.99
2023-08-10T22:50:24.166Z,99.99
2023-08-10T22:52:36.268Z,99.99
2023-08-10T22:54:49.317Z,99.99
2023-08-10T22:57:02.414Z,99.99
2023-08-10T22:59:19.114Z,99.99
2023-08-10T23:01:55.937Z,99.99
2023-08-10T23:05:25.475Z,99.99
2023-08-10T23:07:37.493Z,99.99
2023-08-10T23:09:50.563Z,99.99
2023-08-10T23:12:05.544Z,99.99
2023-08-10T23:17:06.772Z,99.99
2023-08-10T23:19:19.804Z,99.99
2023-08-10T23:21:32.910Z,99.99
2023-08-10T23:25:12.732Z,99.99
2023-08-10T23:27:24.489Z,99.99
2023-08-10T23:29:38.151Z,99.99
2023-08-10T23:31:51.258Z,99.99
2023-08-10T23:35:46.878Z,99.99
2023-08-10T23:38:08.944Z,99.99
2023-08-10T23:40:38.085Z,99.99
2023-08-10T23:42:51.160Z,99.99
2023-08-10T23:46:30.649Z,99.99
2023-08-10T23:48:43.711Z,99.99
2023-08-10T23:51:13.821Z,99.99
2023-08-10T23:53:25.842Z,99.99
2023-08-10T23:56:55.362Z,99.99
2023-08-10T23:59:10.541Z,99.99
